Airfield :
LOGIN :

Register | Disclaimer

   EN    FR    IT 

 










Legend :    VFR   Marginal VFR   IFR   Intensive IFR   Very Intensive IFR
Visi :
Ceiling :
>= 8 km
>= 3000ft
5 to 8 km
1000 to 3000 ft
1500m to 5 km
500 to 1000 ft
800 to 1500m
200 to 500 ft
< 800m
< 200 ft
Symbols :   Thunderstorms  Fog  Heavy snow  Heavy precipitations  Wind > 20 kt
SIGMETs :     Misc.  Thunderstorms  Icing  Turbulence  Mountain Waves  Volcanic Ashes






- Airport Elevation : 119 ft
- IATA code : WAT


EIWF - Waterford

CURRENT METAR :
  • 041330Z 32019G31KT 280V350 9999 FEW040 06/02 Q0984

EXPIRED METARs :
  • 041300Z 32018G29KT 280V360 9999 FEW030 05/01 Q0984
  • 041230Z 32017G27KT 9999 FEW030 05/01 Q0984
  • 041200Z 32018KT 9999 FEW009 04/02 Q0984
  • 041130Z 33015KT 280V360 9999 FEW009 04/02 Q0985
  • 041100Z 33014G24KT 9999 FEW025 04/01 Q0985

TAF TAF EIWF
Valid from the 04 at 12:00 until the 04 at 21:00 UTC


041100Z 0412/0421 34015KT 9999 FEW018 SCT025
TEMPO 0412/0414 34018G30KT
PROB30
TEMPO 0413/0421 -RA BKN012
BECMG 0414/0416 35025G40KT
ATIS : +353 51 877 000



MET'MAP, your aeronautical weather chart ! - Copyright ORBIFLY December 2007 - Disclaimer

ORBIFLY MET'MAP TEAM :

Programming & Development : Alexandra Zaïnal
Concept & original design : Baudouin d'Aumeries
Assistance for programming : Marc-Olivier Méhu
Technical & hardware support : Manuel Goepfert

Contact : metmap@orbifly.com




SOURCES & CREDITS :

   NOAA